sensor_id;sensor_type;location;lat;lon;timestamp;pressure;altitude;pressure_sealevel;temperature;humidity
58919;BME280;44704;50.122;19.932;2022-07-23T00:00:07;98421.05;;;21.48;65.11
58919;BME280;44704;50.122;19.932;2022-07-23T00:02:57;98420.24;;;21.47;65.27
58919;BME280;44704;50.122;19.932;2022-07-23T00:05:24;98419.59;;;21.47;65.74
58919;BME280;44704;50.122;19.932;2022-07-23T00:07:52;98418.61;;;21.46;65.87
58919;BME280;44704;50.122;19.932;2022-07-23T00:10:21;98416.17;;;21.46;65.88
58919;BME280;44704;50.122;19.932;2022-07-23T00:12:47;98408.77;;;21.45;65.68
58919;BME280;44704;50.122;19.932;2022-07-23T00:15:13;98412.92;;;21.42;65.69
58919;BME280;44704;50.122;19.932;2022-07-23T00:17:40;98408.59;;;21.38;65.67
58919;BME280;44704;50.122;19.932;2022-07-23T00:20:07;98414.46;;;21.35;65.96
58919;BME280;44704;50.122;19.932;2022-07-23T00:22:33;98402.86;;;21.34;66.00
58919;BME280;44704;50.122;19.932;2022-07-23T00:25:00;98399.90;;;21.34;65.92
58919;BME280;44704;50.122;19.932;2022-07-23T00:27:29;98400.73;;;21.33;66.19
58919;BME280;44704;50.122;19.932;2022-07-23T00:29:59;98407.42;;;21.32;66.31
58919;BME280;44704;50.122;19.932;2022-07-23T00:32:28;98410.97;;;21.28;66.31
58919;BME280;44704;50.122;19.932;2022-07-23T00:34:56;98415.79;;;21.26;66.21
58919;BME280;44704;50.122;19.932;2022-07-23T00:37:23;98419.14;;;21.24;66.26
58919;BME280;44704;50.122;19.932;2022-07-23T00:39:49;98418.28;;;21.22;66.16
58919;BME280;44704;50.122;19.932;2022-07-23T00:42:17;98419.71;;;21.17;66.11
58919;BME280;44704;50.122;19.932;2022-07-23T00:44:43;98421.06;;;21.14;66.43
58919;BME280;44704;50.122;19.932;2022-07-23T00:47:10;98419.32;;;21.13;66.37
58919;BME280;44704;50.122;19.932;2022-07-23T00:49:36;98419.16;;;21.11;66.45
58919;BME280;44704;50.122;19.932;2022-07-23T00:52:03;98417.60;;;21.09;66.29
58919;BME280;44704;50.122;19.932;2022-07-23T00:54:32;98419.14;;;21.05;66.27
58919;BME280;44704;50.122;19.932;2022-07-23T00:56:58;98421.30;;;21.02;66.28
58919;BME280;44704;50.122;19.932;2022-07-23T00:59:25;98420.86;;;21.00;66.23
58919;BME280;44704;50.122;19.932;2022-07-23T01:01:51;98414.49;;;20.98;66.29
58919;BME280;44704;50.122;19.932;2022-07-23T01:04:18;98413.50;;;20.95;66.27
58919;BME280;44704;50.122;19.932;2022-07-23T01:06:45;98414.49;;;20.93;66.27
58919;BME280;44704;50.122;19.932;2022-07-23T01:09:11;98417.39;;;20.91;66.44
58919;BME280;44704;50.122;19.932;2022-07-23T01:11:38;98417.96;;;20.90;66.54
58919;BME280;44704;50.122;19.932;2022-07-23T01:14:14;98410.91;;;20.88;66.56
58919;BME280;44704;50.122;19.932;2022-07-23T01:16:42;98410.28;;;20.87;66.66
58919;BME280;44704;50.122;19.932;2022-07-23T01:19:13;98412.23;;;20.86;66.93
58919;BME280;44704;50.122;19.932;2022-07-23T01:21:51;98415.02;;;20.85;67.04
58919;BME280;44704;50.122;19.932;2022-07-23T01:24:18;98414.94;;;20.79;67.25
58919;BME280;44704;50.122;19.932;2022-07-23T01:26:58;98409.00;;;20.69;67.57
58919;BME280;44704;50.122;19.932;2022-07-23T01:29:25;98407.14;;;20.65;67.70
58919;BME280;44704;50.122;19.932;2022-07-23T01:31:52;98406.00;;;20.62;67.91
58919;BME280;44704;50.122;19.932;2022-07-23T01:34:18;98406.93;;;20.61;68.11
58919;BME280;44704;50.122;19.932;2022-07-23T01:36:46;98405.00;;;20.58;67.97
58919;BME280;44704;50.122;19.932;2022-07-23T01:39:15;98409.54;;;20.51;68.06
58919;BME280;44704;50.122;19.932;2022-07-23T01:41:56;98410.00;;;20.45;68.29
58919;BME280;44704;50.122;19.932;2022-07-23T01:44:24;98414.42;;;20.38;68.45
58919;BME280;44704;50.122;19.932;2022-07-23T01:46:50;98416.45;;;20.26;68.46
58919;BME280;44704;50.122;19.932;2022-07-23T01:49:18;98420.30;;;20.11;68.88
58919;BME280;44704;50.122;19.932;2022-07-23T01:51:58;98416.27;;;19.96;69.25
58919;BME280;44704;50.122;19.932;2022-07-23T01:54:48;98418.89;;;19.89;69.90
58919;BME280;44704;50.122;19.932;2022-07-23T01:57:14;98417.27;;;19.87;69.98
58919;BME280;44704;50.122;19.932;2022-07-23T01:59:40;98413.65;;;19.88;70.05
58919;BME280;44704;50.122;19.932;2022-07-23T02:02:08;98407.55;;;19.91;70.10
58919;BME280;44704;50.122;19.932;2022-07-23T02:04:35;98406.62;;;19.94;69.93
58919;BME280;44704;50.122;19.932;2022-07-23T02:07:04;98406.58;;;19.96;69.83
58919;BME280;44704;50.122;19.932;2022-07-23T02:09:30;98408.41;;;19.98;69.93
58919;BME280;44704;50.122;19.932;2022-07-23T02:11:57;98405.86;;;19.99;69.93
58919;BME280;44704;50.122;19.932;2022-07-23T02:14:25;98406.06;;;20.00;69.98
58919;BME280;44704;50.122;19.932;2022-07-23T02:16:51;98409.45;;;20.01;69.97
58919;BME280;44704;50.122;19.932;2022-07-23T02:19:18;98410.70;;;20.00;69.91
58919;BME280;44704;50.122;19.932;2022-07-23T02:21:44;98414.55;;;20.01;70.11
58919;BME280;44704;50.122;19.932;2022-07-23T02:24:10;98410.77;;;19.97;69.90
58919;BME280;44704;50.122;19.932;2022-07-23T02:26:37;98413.89;;;19.90;69.83
58919;BME280;44704;50.122;19.932;2022-07-23T02:29:05;98414.34;;;19.85;70.01
58919;BME280;44704;50.122;19.932;2022-07-23T02:31:32;98414.81;;;19.85;70.21
58919;BME280;44704;50.122;19.932;2022-07-23T02:33:59;98419.67;;;19.86;70.31
58919;BME280;44704;50.122;19.932;2022-07-23T02:36:42;98413.75;;;19.86;70.32
58919;BME280;44704;50.122;19.932;2022-07-23T02:39:08;98412.71;;;19.86;70.33
58919;BME280;44704;50.122;19.932;2022-07-23T02:41:35;98411.40;;;19.85;70.17
58919;BME280;44704;50.122;19.932;2022-07-23T02:44:02;98410.62;;;19.82;70.13
58919;BME280;44704;50.122;19.932;2022-07-23T02:46:31;98409.58;;;19.82;70.15
58919;BME280;44704;50.122;19.932;2022-07-23T02:48:57;98408.50;;;19.83;70.27
58919;BME280;44704;50.122;19.932;2022-07-23T02:51:23;98410.77;;;19.83;70.24
58919;BME280;44704;50.122;19.932;2022-07-23T02:53:56;98410.71;;;19.83;70.00
58919;BME280;44704;50.122;19.932;2022-07-23T02:56:23;98415.75;;;19.80;70.14
58919;BME280;44704;50.122;19.932;2022-07-23T02:58:49;98418.48;;;19.72;70.14
58919;BME280;44704;50.122;19.932;2022-07-23T03:01:15;98422.45;;;19.64;70.23
58919;BME280;44704;50.122;19.932;2022-07-23T03:03:56;98418.71;;;19.58;70.62
58919;BME280;44704;50.122;19.932;2022-07-23T03:06:23;98415.21;;;19.55;70.69
58919;BME280;44704;50.122;19.932;2022-07-23T03:08:49;98417.09;;;19.56;70.82
58919;BME280;44704;50.122;19.932;2022-07-23T03:11:15;98416.91;;;19.57;71.04
58919;BME280;44704;50.122;19.932;2022-07-23T03:13:42;98410.77;;;19.58;70.95
58919;BME280;44704;50.122;19.932;2022-07-23T03:16:08;98407.28;;;19.59;70.82
58919;BME280;44704;50.122;19.932;2022-07-23T03:18:36;98405.66;;;19.60;70.72
58919;BME280;44704;50.122;19.932;2022-07-23T03:21:04;98408.84;;;19.62;70.69
58919;BME280;44704;50.122;19.932;2022-07-23T03:23:31;98408.61;;;19.62;70.48
58919;BME280;44704;50.122;19.932;2022-07-23T03:25:58;98407.20;;;19.63;70.68
58919;BME280;44704;50.122;19.932;2022-07-23T03:28:25;98404.16;;;19.64;70.43
58919;BME280;44704;50.122;19.932;2022-07-23T03:30:52;98406.23;;;19.64;70.24
58919;BME280;44704;50.122;19.932;2022-07-23T03:33:21;98406.08;;;19.64;70.44
58919;BME280;44704;50.122;19.932;2022-07-23T03:35:48;98403.52;;;19.62;70.32
58919;BME280;44704;50.122;19.932;2022-07-23T03:38:19;98401.97;;;19.57;70.35
58919;BME280;44704;50.122;19.932;2022-07-23T03:40:45;98401.19;;;19.51;70.54
58919;BME280;44704;50.122;19.932;2022-07-23T03:43:11;98400.66;;;19.50;70.78
58919;BME280;44704;50.122;19.932;2022-07-23T03:45:37;98401.12;;;19.52;70.98
58919;BME280;44704;50.122;19.932;2022-07-23T03:48:04;98400.57;;;19.55;71.05
58919;BME280;44704;50.122;19.932;2022-07-23T03:50:31;98398.39;;;19.60;70.83
58919;BME280;44704;50.122;19.932;2022-07-23T03:52:57;98398.23;;;19.64;70.62
58919;BME280;44704;50.122;19.932;2022-07-23T03:55:23;98395.85;;;19.68;70.45
58919;BME280;44704;50.122;19.932;2022-07-23T03:57:50;98393.68;;;19.71;70.39
58919;BME280;44704;50.122;19.932;2022-07-23T04:00:16;98393.39;;;19.72;69.87
58919;BME280;44704;50.122;19.932;2022-07-23T04:02:43;98400.39;;;19.67;69.76
58919;BME280;44704;50.122;19.932;2022-07-23T04:05:12;98401.23;;;19.55;69.90
58919;BME280;44704;50.122;19.932;2022-07-23T04:07:40;98397.88;;;19.36;70.22
58919;BME280;44704;50.122;19.932;2022-07-23T04:10:06;98401.58;;;19.21;70.76
58919;BME280;44704;50.122;19.932;2022-07-23T04:12:33;98404.11;;;19.05;71.35
58919;BME280;44704;50.122;19.932;2022-07-23T04:15:01;98409.00;;;18.93;72.03
58919;BME280;44704;50.122;19.932;2022-07-23T04:17:28;98412.40;;;18.91;72.50
58919;BME280;44704;50.122;19.932;2022-07-23T04:19:54;98409.52;;;18.94;72.71
58919;BME280;44704;50.122;19.932;2022-07-23T04:22:22;98414.17;;;19.01;72.39
58919;BME280;44704;50.122;19.932;2022-07-23T04:24:49;98404.39;;;19.08;72.07
58919;BME280;44704;50.122;19.932;2022-07-23T04:27:16;98401.09;;;19.17;71.87
58919;BME280;44704;50.122;19.932;2022-07-23T04:29:47;98396.77;;;19.25;71.50
58919;BME280;44704;50.122;19.932;2022-07-23T04:32:13;98391.80;;;19.33;71.14
58919;BME280;44704;50.122;19.932;2022-07-23T04:34:40;98390.66;;;19.42;70.90
58919;BME280;44704;50.122;19.932;2022-07-23T04:37:07;98389.11;;;19.50;70.50
58919;BME280;44704;50.122;19.932;2022-07-23T04:39:35;98390.44;;;19.56;70.29
58919;BME280;44704;50.122;19.932;2022-07-23T04:42:01;98384.88;;;19.61;70.41
58919;BME280;44704;50.122;19.932;2022-07-23T04:44:28;98392.85;;;19.71;70.44
58919;BME280;44704;50.122;19.932;2022-07-23T04:47:09;98389.20;;;19.83;70.26
58919;BME280;44704;50.122;19.932;2022-07-23T04:49:36;98383.28;;;19.95;70.31
58919;BME280;44704;50.122;19.932;2022-07-23T04:52:03;98390.48;;;20.05;70.37
58919;BME280;44704;50.122;19.932;2022-07-23T04:54:29;98400.00;;;20.15;70.35
58919;BME280;44704;50.122;19.932;2022-07-23T04:56:56;98404.85;;;20.23;70.35
58919;BME280;44704;50.122;19.932;2022-07-23T04:59:22;98399.09;;;20.34;70.50
58919;BME280;44704;50.122;19.932;2022-07-23T05:01:51;98395.86;;;20.42;70.10
58919;BME280;44704;50.122;19.932;2022-07-23T05:04:18;98391.95;;;20.51;70.23
58919;BME280;44704;50.122;19.932;2022-07-23T05:06:45;98392.91;;;20.59;70.24
58919;BME280;44704;50.122;19.932;2022-07-23T05:09:12;98389.77;;;20.67;70.34
58919;BME280;44704;50.122;19.932;2022-07-23T05:11:39;98387.34;;;20.72;70.10
58919;BME280;44704;50.122;19.932;2022-07-23T05:14:05;98387.60;;;20.75;70.15
58919;BME280;44704;50.122;19.932;2022-07-23T05:16:33;98388.39;;;20.77;69.99
58919;BME280;44704;50.122;19.932;2022-07-23T05:19:03;98390.43;;;20.79;70.21
58919;BME280;44704;50.122;19.932;2022-07-23T05:21:31;98387.84;;;20.84;70.27
58919;BME280;44704;50.122;19.932;2022-07-23T05:23:57;98387.20;;;20.91;70.30
58919;BME280;44704;50.122;19.932;2022-07-23T05:26:23;98388.23;;;21.00;70.22
58919;BME280;44704;50.122;19.932;2022-07-23T05:28:50;98382.67;;;21.13;70.26
58919;BME280;44704;50.122;19.932;2022-07-23T05:31:18;98385.63;;;21.25;70.19
58919;BME280;44704;50.122;19.932;2022-07-23T05:33:46;98392.67;;;21.35;69.87
58919;BME280;44704;50.122;19.932;2022-07-23T05:36:13;98395.88;;;21.44;69.78
58919;BME280;44704;50.122;19.932;2022-07-23T05:38:45;98397.58;;;21.53;69.65
58919;BME280;44704;50.122;19.932;2022-07-23T05:41:11;98396.05;;;21.60;69.65
58919;BME280;44704;50.122;19.932;2022-07-23T05:43:37;98390.96;;;21.68;69.43
58919;BME280;44704;50.122;19.932;2022-07-23T05:46:10;98388.34;;;21.75;69.53
58919;BME280;44704;50.122;19.932;2022-07-23T05:48:37;98389.63;;;21.78;69.39
58919;BME280;44704;50.122;19.932;2022-07-23T05:51:08;98386.02;;;21.82;69.38
58919;BME280;44704;50.122;19.932;2022-07-23T05:53:35;98384.40;;;21.86;69.33
58919;BME280;44704;50.122;19.932;2022-07-23T05:56:31;98387.02;;;21.93;68.95
58919;BME280;44704;50.122;19.932;2022-07-23T05:58:57;98384.41;;;21.98;68.86
58919;BME280;44704;50.122;19.932;2022-07-23T06:01:23;98382.63;;;22.04;68.99
58919;BME280;44704;50.122;19.932;2022-07-23T06:03:59;98381.66;;;22.10;69.04
58919;BME280;44704;50.122;19.932;2022-07-23T06:06:31;98382.52;;;22.16;68.88
58919;BME280;44704;50.122;19.932;2022-07-23T06:08:58;98379.28;;;22.25;68.87
58919;BME280;44704;50.122;19.932;2022-07-23T06:11:24;98380.97;;;22.34;68.68
58919;BME280;44704;50.122;19.932;2022-07-23T06:13:50;98381.96;;;22.40;68.38
58919;BME280;44704;50.122;19.932;2022-07-23T06:16:17;98374.99;;;22.48;68.31
58919;BME280;44704;50.122;19.932;2022-07-23T06:18:45;98371.88;;;22.56;68.47
58919;BME280;44704;50.122;19.932;2022-07-23T06:21:11;98372.02;;;22.67;68.48
58919;BME280;44704;50.122;19.932;2022-07-23T06:23:38;98369.69;;;22.78;68.61
58919;BME280;44704;50.122;19.932;2022-07-23T06:26:04;98370.68;;;22.90;68.47
58919;BME280;44704;50.122;19.932;2022-07-23T06:28:30;98367.80;;;23.02;68.24
58919;BME280;44704;50.122;19.932;2022-07-23T06:30:56;98366.63;;;23.13;68.04
58919;BME280;44704;50.122;19.932;2022-07-23T06:33:23;98361.54;;;23.22;67.86
58919;BME280;44704;50.122;19.932;2022-07-23T06:35:49;98357.22;;;23.32;67.60
58919;BME280;44704;50.122;19.932;2022-07-23T06:38:16;98357.30;;;23.44;67.49
58919;BME280;44704;50.122;19.932;2022-07-23T06:40:42;98357.33;;;23.56;67.07
58919;BME280;44704;50.122;19.932;2022-07-23T06:43:10;98351.90;;;23.69;66.93
58919;BME280;44704;50.122;19.932;2022-07-23T06:45:36;98351.08;;;23.81;66.46
58919;BME280;44704;50.122;19.932;2022-07-23T06:48:03;98345.99;;;23.93;66.34
58919;BME280;44704;50.122;19.932;2022-07-23T06:50:29;98345.36;;;24.03;65.91
58919;BME280;44704;50.122;19.932;2022-07-23T06:52:56;98348.02;;;24.14;65.83
58919;BME280;44704;50.122;19.932;2022-07-23T06:55:22;98351.41;;;24.24;65.35
58919;BME280;44704;50.122;19.932;2022-07-23T06:57:49;98348.65;;;24.33;64.97
58919;BME280;44704;50.122;19.932;2022-07-23T07:00:16;98347.45;;;24.43;64.81
58919;BME280;44704;50.122;19.932;2022-07-23T07:02:42;98345.73;;;24.53;64.07
58919;BME280;44704;50.122;19.932;2022-07-23T07:05:09;98341.68;;;24.62;64.14
58919;BME280;44704;50.122;19.932;2022-07-23T07:07:35;98341.89;;;24.71;64.01
58919;BME280;44704;50.122;19.932;2022-07-23T07:10:03;98339.79;;;24.80;63.56
58919;BME280;44704;50.122;19.932;2022-07-23T07:12:30;98337.16;;;24.89;63.32
58919;BME280;44704;50.122;19.932;2022-07-23T07:14:56;98340.45;;;24.99;62.73
58919;BME280;44704;50.122;19.932;2022-07-23T07:17:23;98339.33;;;25.08;62.43
58919;BME280;44704;50.122;19.932;2022-07-23T07:19:49;98338.06;;;25.17;61.63
58919;BME280;44704;50.122;19.932;2022-07-23T07:22:16;98333.33;;;25.27;61.42
58919;BME280;44704;50.122;19.932;2022-07-23T07:24:57;98330.02;;;25.40;60.72
58919;BME280;44704;50.122;19.932;2022-07-23T07:27:23;98335.12;;;25.52;60.61
58919;BME280;44704;50.122;19.932;2022-07-23T07:29:49;98331.74;;;25.63;60.51
58919;BME280;44704;50.122;19.932;2022-07-23T07:32:16;98328.66;;;25.76;60.50
58919;BME280;44704;50.122;19.932;2022-07-23T07:34:42;98324.48;;;25.90;60.47
58919;BME280;44704;50.122;19.932;2022-07-23T07:37:08;98318.01;;;26.02;59.71
58919;BME280;44704;50.122;19.932;2022-07-23T07:39:34;98316.74;;;26.15;59.65
58919;BME280;44704;50.122;19.932;2022-07-23T07:42:01;98315.42;;;26.27;59.35
58919;BME280;44704;50.122;19.932;2022-07-23T07:44:27;98309.29;;;26.41;58.86
58919;BME280;44704;50.122;19.932;2022-07-23T07:47:08;98315.62;;;26.58;58.25
58919;BME280;44704;50.122;19.932;2022-07-23T07:49:34;98312.53;;;26.72;57.47
58919;BME280;44704;50.122;19.932;2022-07-23T07:52:01;98313.00;;;26.86;56.71
58919;BME280;44704;50.122;19.932;2022-07-23T07:54:27;98317.66;;;26.99;56.23
58919;BME280;44704;50.122;19.932;2022-07-23T07:56:53;98320.79;;;27.14;55.69
58919;BME280;44704;50.122;19.932;2022-07-23T07:59:20;98323.98;;;27.29;55.50
58919;BME280;44704;50.122;19.932;2022-07-23T08:02:01;98320.53;;;27.47;54.92
58919;BME280;44704;50.122;19.932;2022-07-23T08:04:27;98324.36;;;27.62;54.29
58919;BME280;44704;50.122;19.932;2022-07-23T08:06:53;98322.00;;;27.77;53.42
58919;BME280;44704;50.122;19.932;2022-07-23T08:09:34;98323.85;;;27.94;52.93
58919;BME280;44704;50.122;19.932;2022-07-23T08:12:00;98330.70;;;28.10;52.56
58919;BME280;44704;50.122;19.932;2022-07-23T08:14:27;98335.15;;;28.27;51.71
58919;BME280;44704;50.122;19.932;2022-07-23T08:16:54;98334.88;;;28.43;51.00
58919;BME280;44704;50.122;19.932;2022-07-23T08:19:20;98331.98;;;28.57;50.88
58919;BME280;44704;50.122;19.932;2022-07-23T08:21:46;98329.52;;;28.72;50.39
58919;BME280;44704;50.122;19.932;2022-07-23T08:24:13;98333.20;;;28.89;50.18
58919;BME280;44704;50.122;19.932;2022-07-23T08:26:39;98334.83;;;29.03;49.21
58919;BME280;44704;50.122;19.932;2022-07-23T08:29:05;98338.06;;;29.16;48.38
58919;BME280;44704;50.122;19.932;2022-07-23T08:31:32;98338.26;;;29.31;48.03
58919;BME280;44704;50.122;19.932;2022-07-23T08:34:00;98335.83;;;29.48;47.41
58919;BME280;44704;50.122;19.932;2022-07-23T08:36:28;98337.04;;;29.63;46.69
58919;BME280;44704;50.122;19.932;2022-07-23T08:38:58;98337.38;;;29.77;46.73
58919;BME280;44704;50.122;19.932;2022-07-23T08:41:25;98336.15;;;29.90;45.46
58919;BME280;44704;50.122;19.932;2022-07-23T08:43:51;98336.03;;;30.03;45.05
58919;BME280;44704;50.122;19.932;2022-07-23T08:46:20;98332.48;;;30.18;45.55
58919;BME280;44704;50.122;19.932;2022-07-23T08:48:48;98326.05;;;30.34;45.45
58919;BME280;44704;50.122;19.932;2022-07-23T08:51:15;98322.23;;;30.48;45.06
58919;BME280;44704;50.122;19.932;2022-07-23T08:53:56;98324.85;;;30.65;45.16
58919;BME280;44704;50.122;19.932;2022-07-23T08:56:38;98318.52;;;30.80;44.27
58919;BME280;44704;50.122;19.932;2022-07-23T08:59:04;98313.23;;;30.93;43.85
58919;BME280;44704;50.122;19.932;2022-07-23T09:01:45;98309.39;;;31.01;43.77
58919;BME280;44704;50.122;19.932;2022-07-23T09:04:12;98303.42;;;31.08;42.91
58919;BME280;44704;50.122;19.932;2022-07-23T09:06:42;98300.42;;;31.13;41.86
58919;BME280;44704;50.122;19.932;2022-07-23T09:09:19;98296.82;;;31.22;42.67
58919;BME280;44704;50.122;19.932;2022-07-23T09:11:47;98300.79;;;31.34;42.41
58919;BME280;44704;50.122;19.932;2022-07-23T09:14:39;98298.48;;;31.46;41.71
58919;BME280;44704;50.122;19.932;2022-07-23T09:19:36;98300.02;;;31.63;40.41
58919;BME280;44704;50.122;19.932;2022-07-23T09:22:18;98300.99;;;31.76;40.37
58919;BME280;44704;50.122;19.932;2022-07-23T09:27:55;98295.96;;;32.02;38.98
58919;BME280;44704;50.122;19.932;2022-07-23T09:30:24;98299.69;;;32.16;38.21
58919;BME280;44704;50.122;19.932;2022-07-23T09:33:06;98302.89;;;32.29;37.96
58919;BME280;44704;50.122;19.932;2022-07-23T09:35:50;98301.27;;;32.41;37.81
58919;BME280;44704;50.122;19.932;2022-07-23T09:38:19;98298.66;;;32.51;37.01
58919;BME280;44704;50.122;19.932;2022-07-23T09:40:47;98296.44;;;32.59;37.65
58919;BME280;44704;50.122;19.932;2022-07-23T09:43:31;98285.29;;;32.56;37.36
58919;BME280;44704;50.122;19.932;2022-07-23T09:48:47;98273.23;;;32.78;36.60
58919;BME280;44704;50.122;19.932;2022-07-23T09:51:28;98275.45;;;32.90;36.56
58919;BME280;44704;50.122;19.932;2022-07-23T09:54:32;98275.86;;;33.01;35.65
58919;BME280;44704;50.122;19.932;2022-07-23T09:57:09;98278.41;;;33.15;35.62
58919;BME280;44704;50.122;19.932;2022-07-23T09:59:40;98272.79;;;33.27;35.21
58919;BME280;44704;50.122;19.932;2022-07-23T10:02:10;98267.14;;;33.39;34.95
58919;BME280;44704;50.122;19.932;2022-07-23T10:04:53;98269.89;;;33.55;34.19
58919;BME280;44704;50.122;19.932;2022-07-23T10:07:34;98270.79;;;33.73;33.96
58919;BME280;44704;50.122;19.932;2022-07-23T10:10:22;98261.63;;;33.89;33.70
58919;BME280;44704;50.122;19.932;2022-07-23T10:13:05;98256.83;;;34.01;33.06
58919;BME280;44704;50.122;19.932;2022-07-23T10:15:40;98260.85;;;34.13;33.18
58919;BME280;44704;50.122;19.932;2022-07-23T10:18:09;98261.00;;;34.24;33.26
58919;BME280;44704;50.122;19.932;2022-07-23T10:20:35;98257.47;;;34.38;33.06
58919;BME280;44704;50.122;19.932;2022-07-23T10:26:39;98254.69;;;34.66;31.54
58919;BME280;44704;50.122;19.932;2022-07-23T10:38:33;98257.69;;;35.33;28.17
58919;BME280;44704;50.122;19.932;2022-07-23T10:41:04;98253.74;;;35.50;28.27
58919;BME280;44704;50.122;19.932;2022-07-23T10:43:31;98251.80;;;35.69;27.77
58919;BME280;44704;50.122;19.932;2022-07-23T10:46:22;98244.99;;;35.80;27.59
58919;BME280;44704;50.122;19.932;2022-07-23T10:52:24;98251.11;;;36.06;28.65
58919;BME280;44704;50.122;19.932;2022-07-23T10:57:48;98237.24;;;36.50;27.09
58919;BME280;44704;50.122;19.932;2022-07-23T11:00:23;98234.23;;;36.44;26.83
58919;BME280;44704;50.122;19.932;2022-07-23T11:02:55;98229.37;;;36.32;27.27
58919;BME280;44704;50.122;19.932;2022-07-23T11:05:24;98235.27;;;36.18;26.93
58919;BME280;44704;50.122;19.932;2022-07-23T11:18:54;98226.46;;;36.17;27.09
58919;BME280;44704;50.122;19.932;2022-07-23T11:21:42;98220.09;;;36.35;26.67
58919;BME280;44704;50.122;19.932;2022-07-23T11:24:11;98218.37;;;36.36;27.35
58919;BME280;44704;50.122;19.932;2022-07-23T11:26:55;98218.13;;;36.36;27.66
58919;BME280;44704;50.122;19.932;2022-07-23T11:34:33;98208.88;;;36.69;26.88
58919;BME280;44704;50.122;19.932;2022-07-23T11:37:02;98195.15;;;36.77;26.88
58919;BME280;44704;50.122;19.932;2022-07-23T11:39:30;98202.02;;;36.78;26.23
58919;BME280;44704;50.122;19.932;2022-07-23T11:42:17;98205.83;;;36.83;25.98
58919;BME280;44704;50.122;19.932;2022-07-23T11:44:46;98203.55;;;36.84;24.90
58919;BME280;44704;50.122;19.932;2022-07-23T11:47:14;98196.36;;;36.93;25.61
58919;BME280;44704;50.122;19.932;2022-07-23T11:49:53;98197.80;;;37.08;25.53
58919;BME280;44704;50.122;19.932;2022-07-23T11:52:19;98192.39;;;37.24;25.43
58919;BME280;44704;50.122;19.932;2022-07-23T11:54:54;98187.90;;;37.26;25.40
58919;BME280;44704;50.122;19.932;2022-07-23T11:57:26;98188.08;;;37.20;26.40
58919;BME280;44704;50.122;19.932;2022-07-23T11:59:55;98182.89;;;37.24;25.73
58919;BME280;44704;50.122;19.932;2022-07-23T12:02:23;98180.58;;;37.27;26.45
58919;BME280;44704;50.122;19.932;2022-07-23T12:04:51;98176.89;;;37.38;26.15
58919;BME280;44704;50.122;19.932;2022-07-23T12:07:37;98172.50;;;37.56;26.18
58919;BME280;44704;50.122;19.932;2022-07-23T12:15:19;98162.36;;;37.79;25.43
58919;BME280;44704;50.122;19.932;2022-07-23T12:17:47;98159.61;;;37.65;24.99
58919;BME280;44704;50.122;19.932;2022-07-23T12:20:16;98160.77;;;37.54;25.50
58919;BME280;44704;50.122;19.932;2022-07-23T12:23:03;98155.41;;;37.50;25.83
58919;BME280;44704;50.122;19.932;2022-07-23T12:25:32;98154.27;;;37.41;26.14
58919;BME280;44704;50.122;19.932;2022-07-23T12:28:05;98151.89;;;37.39;25.40
58919;BME280;44704;50.122;19.932;2022-07-23T12:30:41;98144.61;;;37.41;25.45
58919;BME280;44704;50.122;19.932;2022-07-23T12:33:10;98144.58;;;37.31;25.99
58919;BME280;44704;50.122;19.932;2022-07-23T12:35:43;98139.09;;;37.13;26.25
58919;BME280;44704;50.122;19.932;2022-07-23T12:38:15;98139.73;;;36.98;26.93
58919;BME280;44704;50.122;19.932;2022-07-23T12:40:59;98136.23;;;36.79;26.52
58919;BME280;44704;50.122;19.932;2022-07-23T12:43:34;98136.56;;;36.61;26.67
58919;BME280;44704;50.122;19.932;2022-07-23T12:46:10;98134.67;;;36.52;27.26
58919;BME280;44704;50.122;19.932;2022-07-23T12:48:52;98132.48;;;36.42;26.37
58919;BME280;44704;50.122;19.932;2022-07-23T12:51:32;98127.21;;;36.42;26.68
58919;BME280;44704;50.122;19.932;2022-07-23T12:54:09;98124.23;;;36.46;26.27
58919;BME280;44704;50.122;19.932;2022-07-23T12:56:38;98118.78;;;36.47;27.73
58919;BME280;44704;50.122;19.932;2022-07-23T12:59:19;98115.78;;;36.47;26.81
58919;BME280;44704;50.122;19.932;2022-07-23T13:01:54;98113.61;;;36.46;27.42
58919;BME280;44704;50.122;19.932;2022-07-23T13:04:22;98109.13;;;36.43;27.61
58919;BME280;44704;50.122;19.932;2022-07-23T13:06:54;98107.77;;;36.52;26.76
58919;BME280;44704;50.122;19.932;2022-07-23T13:09:24;98104.84;;;36.53;27.17
58919;BME280;44704;50.122;19.932;2022-07-23T13:11:52;98101.09;;;36.50;26.82
58919;BME280;44704;50.122;19.932;2022-07-23T13:14:20;98101.41;;;36.33;26.79
58919;BME280;44704;50.122;19.932;2022-07-23T13:16:47;98103.40;;;36.03;27.54
58919;BME280;44704;50.122;19.932;2022-07-23T13:19:14;98100.16;;;35.80;27.67
58919;BME280;44704;50.122;19.932;2022-07-23T13:21:41;98101.06;;;35.56;26.72
58919;BME280;44704;50.122;19.932;2022-07-23T13:24:10;98096.62;;;35.32;27.36
58919;BME280;44704;50.122;19.932;2022-07-23T13:26:38;98100.98;;;35.14;28.18
58919;BME280;44704;50.122;19.932;2022-07-23T13:29:05;98101.02;;;35.01;28.38
58919;BME280;44704;50.122;19.932;2022-07-23T13:31:32;98096.88;;;34.95;29.07
58919;BME280;44704;50.122;19.932;2022-07-23T13:33:59;98099.06;;;34.96;29.29
58919;BME280;44704;50.122;19.932;2022-07-23T13:36:25;98098.30;;;34.97;28.94
58919;BME280;44704;50.122;19.932;2022-07-23T13:38:52;98098.98;;;35.05;29.21
58919;BME280;44704;50.122;19.932;2022-07-23T13:41:18;98092.86;;;35.10;28.67
58919;BME280;44704;50.122;19.932;2022-07-23T13:43:45;98087.41;;;35.24;28.39
58919;BME280;44704;50.122;19.932;2022-07-23T13:46:12;98080.63;;;35.37;27.88
58919;BME280;44704;50.122;19.932;2022-07-23T13:48:38;98077.77;;;35.48;28.24
58919;BME280;44704;50.122;19.932;2022-07-23T13:51:05;98074.77;;;35.54;28.28